createdAt,value
2019-02-22T00:02:30.945Z,97.20
2019-02-22T00:05:06.100Z,97.20
2019-02-22T00:07:41.215Z,97.20
2019-02-22T00:10:16.239Z,97.20
2019-02-22T00:12:52.175Z,97.20
2019-02-22T00:15:27.550Z,97.10
2019-02-22T00:18:02.621Z,97.10
2019-02-22T00:20:41.114Z,97.00
2019-02-22T00:23:15.789Z,97.40
2019-02-22T00:25:51.249Z,97.10
2019-02-22T00:28:26.775Z,96.90
2019-02-22T00:31:02.119Z,96.80
2019-02-22T00:33:37.566Z,96.70
2019-02-22T00:36:14.065Z,96.70
2019-02-22T00:38:49.694Z,96.80
2019-02-22T00:41:24.725Z,96.80
2019-02-22T00:44:00.274Z,96.80
2019-02-22T00:46:35.615Z,96.80
2019-02-22T00:49:11.970Z,96.50
2019-02-22T00:51:47.007Z,96.40
2019-02-22T00:54:22.046Z,96.30
2019-02-22T00:56:57.044Z,96.40
2019-02-22T00:59:32.066Z,96.50
2019-02-22T01:02:07.092Z,96.60
2019-02-22T01:04:42.209Z,97.00
2019-02-22T01:07:17.239Z,96.80
2019-02-22T01:09:52.307Z,96.80
2019-02-22T01:12:27.415Z,96.70
2019-02-22T01:15:02.527Z,96.70
2019-02-22T01:17:39.307Z,96.60
2019-02-22T01:20:14.318Z,96.60
2019-02-22T01:22:50.433Z,96.70
2019-02-22T01:25:25.463Z,96.70
2019-02-22T01:28:00.782Z,96.70
2019-02-22T01:30:35.797Z,96.70
2019-02-22T01:33:10.901Z,96.80
2019-02-22T01:35:45.919Z,96.90
2019-02-22T01:38:20.953Z,96.90
2019-02-22T01:40:55.974Z,97.10
2019-02-22T01:43:33.400Z,97.10
2019-02-22T01:46:07.718Z,97.20
2019-02-22T01:48:42.757Z,97.00
2019-02-22T01:51:17.881Z,96.80
2019-02-22T01:53:54.096Z,96.80
2019-02-22T01:56:29.388Z,96.70
2019-02-22T01:59:04.809Z,96.70
2019-02-22T02:01:40.847Z,96.80
2019-02-22T02:04:16.218Z,96.80
2019-02-22T02:06:51.319Z,97.00
2019-02-22T02:09:26.416Z,97.00
2019-02-22T02:12:02.119Z,97.00
2019-02-22T02:14:37.758Z,97.00
2019-02-22T02:17:13.135Z,97.00
2019-02-22T02:19:48.699Z,97.40
2019-02-22T02:22:25.123Z,97.00
2019-02-22T02:25:00.619Z,97.00
2019-02-22T02:27:35.647Z,97.10
2019-02-22T02:30:10.959Z,97.10
2019-02-22T02:32:46.329Z,97.10
2019-02-22T02:35:22.645Z,97.10
2019-02-22T02:37:57.914Z,97.20
2019-02-22T02:40:33.241Z,97.20
2019-02-22T02:43:08.511Z,97.10
2019-02-22T02:45:43.542Z,97.00
2019-02-22T02:48:19.562Z,96.90
2019-02-22T02:50:55.935Z,96.80
2019-02-22T02:53:31.041Z,96.70
2019-02-22T02:56:06.074Z,96.40
2019-02-22T02:58:41.469Z,96.30
2019-02-22T03:01:16.513Z,96.40
2019-02-22T03:03:51.621Z,96.40
2019-02-22T03:06:34.693Z,96.40
2019-02-22T03:09:10.116Z,96.30
2019-02-22T03:11:47.170Z,96.30
2019-02-22T03:14:22.196Z,96.20
2019-02-22T03:16:57.229Z,96.30
2019-02-22T03:19:32.329Z,96.10
2019-02-22T03:22:07.615Z,96.20
2019-02-22T03:24:42.734Z,96.20
2019-02-22T03:27:18.206Z,96.20
2019-02-22T03:29:53.554Z,96.30
2019-02-22T03:32:29.302Z,96.10
2019-02-22T03:35:05.695Z,96.40
2019-02-22T03:37:41.700Z,96.40
2019-02-22T03:40:16.871Z,96.20
2019-02-22T03:42:51.926Z,95.60
2019-02-22T03:45:27.233Z,95.10
2019-02-22T03:48:02.598Z,94.80
2019-02-22T03:50:37.656Z,94.90
2019-02-22T03:53:20.327Z,95.00
2019-02-22T03:55:56.386Z,94.90
2019-02-22T03:58:31.732Z,94.90
2019-02-22T04:01:06.793Z,94.70
2019-02-22T04:03:43.649Z,94.70
2019-02-22T04:06:18.704Z,94.60
2019-02-22T04:08:54.034Z,94.50
2019-02-22T04:11:29.969Z,94.20
2019-02-22T04:14:05.963Z,93.30
2019-02-22T04:16:40.986Z,93.00
2019-02-22T04:19:16.012Z,93.30
2019-02-22T04:21:51.117Z,92.40
2019-02-22T04:24:26.486Z,92.30
2019-02-22T04:27:02.415Z,91.90
2019-02-22T04:29:37.813Z,92.10
2019-02-22T04:32:13.139Z,92.70
2019-02-22T04:34:48.481Z,92.50
2019-02-22T04:37:24.310Z,92.60
2019-02-22T04:39:59.398Z,93.00
2019-02-22T04:42:34.431Z,93.10
2019-02-22T04:45:09.455Z,93.20
2019-02-22T04:47:44.477Z,93.20
2019-02-22T04:50:19.493Z,93.50
2019-02-22T04:52:54.518Z,93.70
2019-02-22T04:55:29.531Z,93.40
2019-02-22T04:58:05.733Z,93.30
2019-02-22T05:00:40.767Z,93.40
2019-02-22T05:03:15.899Z,93.10
2019-02-22T05:05:50.913Z,93.00
2019-02-22T05:08:26.889Z,93.40
2019-02-22T05:11:01.926Z,93.60
2019-02-22T05:13:37.019Z,93.80
2019-02-22T05:16:12.026Z,94.20
2019-02-22T05:18:47.281Z,94.20
2019-02-22T05:21:22.382Z,94.20
2019-02-22T05:23:57.414Z,94.10
2019-02-22T05:26:32.430Z,94.30
2019-02-22T05:29:07.620Z,94.50
2019-02-22T05:31:42.662Z,94.60
2019-02-22T05:34:17.677Z,94.70
2019-02-22T05:36:52.836Z,94.80
2019-02-22T05:39:27.849Z,95.10
2019-02-22T05:42:03.795Z,95.50
2019-02-22T05:44:38.843Z,95.90
2019-02-22T05:47:14.299Z,96.10
2019-02-22T05:49:49.736Z,96.20
2019-02-22T05:52:25.166Z,96.40
2019-02-22T05:55:00.329Z,96.40
2019-02-22T05:57:35.435Z,96.00
2019-02-22T06:00:10.786Z,95.60
2019-02-22T06:02:47.143Z,95.50
2019-02-22T06:05:22.603Z,95.20
2019-02-22T06:07:57.635Z,95.20
2019-02-22T06:10:33.078Z,94.70
2019-02-22T06:13:08.102Z,94.40
2019-02-22T06:15:43.961Z,94.40
2019-02-22T06:18:18.987Z,94.10
2019-02-22T06:20:54.014Z,94.10
2019-02-22T06:23:29.128Z,93.20
2019-02-22T06:26:04.176Z,93.30
2019-02-22T06:28:39.267Z,92.70
2019-02-22T06:31:14.283Z,92.80
2019-02-22T06:33:49.304Z,92.40
2019-02-22T06:36:24.330Z,92.50
2019-02-22T06:38:59.708Z,92.40
2019-02-22T06:41:34.754Z,92.20
2019-02-22T06:44:11.904Z,91.90
2019-02-22T06:49:20.422Z,91.50
2019-02-22T06:51:55.462Z,91.30
2019-02-22T06:54:30.931Z,91.00
2019-02-22T06:57:06.270Z,90.80
2019-02-22T06:59:41.308Z,90.80
2019-02-22T07:02:16.343Z,91.10
2019-02-22T07:04:51.707Z,91.20
2019-02-22T07:07:27.744Z,91.50
2019-02-22T07:10:03.091Z,91.30
2019-02-22T07:12:40.782Z,90.80
2019-02-22T07:15:15.821Z,89.50
2019-02-22T07:17:50.917Z,88.70
2019-02-22T07:20:25.953Z,88.60
2019-02-22T07:23:01.250Z,87.60
2019-02-22T07:25:38.306Z,86.60
2019-02-22T07:28:13.339Z,85.50
2019-02-22T07:30:49.281Z,83.10
2019-02-22T07:33:24.661Z,78.00
2019-02-22T07:35:59.732Z,76.20
2019-02-22T07:38:34.817Z,73.30
2019-02-22T07:41:09.834Z,73.30
2019-02-22T07:43:44.850Z,74.80
2019-02-22T07:46:19.872Z,76.60
2019-02-22T07:48:54.904Z,78.30
2019-02-22T07:51:29.921Z,79.90
2019-02-22T07:54:04.945Z,80.70
2019-02-22T07:56:39.990Z,81.50
2019-02-22T07:59:15.014Z,82.00
2019-02-22T08:01:50.348Z,82.70
2019-02-22T08:04:31.730Z,82.70
2019-02-22T08:07:06.846Z,83.80
2019-02-22T08:09:43.073Z,84.10
2019-02-22T08:12:18.099Z,84.20
2019-02-22T08:14:53.682Z,84.10
2019-02-22T08:17:28.755Z,83.90
2019-02-22T08:20:06.616Z,84.10
2019-02-22T08:22:41.626Z,82.80
2019-02-22T08:25:16.654Z,81.60
2019-02-22T08:27:54.256Z,79.20
2019-02-22T08:30:31.204Z,78.90
2019-02-22T08:33:06.334Z,78.10
2019-02-22T08:35:41.429Z,76.30
2019-02-22T08:38:16.454Z,77.10
2019-02-22T08:40:51.491Z,76.60
2019-02-22T08:43:31.550Z,76.90
2019-02-22T08:56:24.007Z,73.40
2019-02-22T09:06:45.365Z,57.30
2019-02-22T09:09:20.377Z,51.20
2019-02-22T09:11:57.582Z,47.20
2019-02-22T09:14:32.435Z,43.20
2019-02-22T09:17:07.478Z,40.80
2019-02-22T09:19:42.676Z,37.80
2019-02-22T09:22:22.965Z,33.50
2019-02-22T09:24:54.446Z,33.50
2019-02-22T09:27:29.768Z,32.70
2019-02-22T09:30:08.621Z,32.20
2019-02-22T09:32:43.645Z,30.80
2019-02-22T09:35:21.001Z,30.40
2019-02-22T09:37:56.349Z,29.60
2019-02-22T09:40:31.694Z,29.10
2019-02-22T09:43:07.627Z,28.60
2019-02-22T09:45:42.982Z,28.50
2019-02-22T09:48:18.334Z,29.00
2019-02-22T09:56:04.983Z,28.70
2019-02-22T10:01:15.546Z,26.40
2019-02-22T10:03:51.477Z,26.70
2019-02-22T10:06:27.466Z,26.40
2019-02-22T10:09:06.587Z,25.90
2019-02-22T10:11:43.951Z,25.70
2019-02-22T10:14:18.979Z,26.80
2019-02-22T10:16:54.105Z,28.60
2019-02-22T10:19:29.375Z,29.10
2019-02-22T10:22:04.410Z,29.40
2019-02-22T10:24:39.553Z,28.40
2019-02-22T10:27:14.659Z,28.10
2019-02-22T10:29:50.160Z,26.90
2019-02-22T10:32:26.208Z,25.70
2019-02-22T10:35:02.486Z,25.60
2019-02-22T10:37:37.833Z,25.10
2019-02-22T10:40:14.820Z,25.20
2019-02-22T10:42:52.201Z,24.70
2019-02-22T10:45:27.658Z,25.10
2019-02-22T10:48:02.750Z,24.20
2019-02-22T10:50:37.777Z,25.20
2019-02-22T10:53:13.275Z,24.70
2019-02-22T10:55:49.281Z,24.30
2019-02-22T10:58:24.754Z,23.40
2019-02-22T11:01:00.850Z,23.60
2019-02-22T11:03:36.894Z,23.00
2019-02-22T11:06:13.488Z,23.00
2019-02-22T11:08:48.916Z,23.20
2019-02-22T11:11:24.981Z,23.00
2019-02-22T11:14:03.373Z,22.60
2019-02-22T11:16:40.771Z,23.30
2019-02-22T11:19:15.869Z,22.30
2019-02-22T11:21:51.259Z,22.20
2019-02-22T11:24:31.393Z,22.10
2019-02-22T11:27:07.490Z,22.80
2019-02-22T11:29:42.551Z,23.10
2019-02-22T11:32:18.647Z,22.80
2019-02-22T11:34:54.918Z,22.20
2019-02-22T11:37:30.068Z,22.50
2019-02-22T11:40:08.375Z,22.30
2019-02-22T11:42:44.731Z,22.50
2019-02-22T11:45:19.755Z,22.90
2019-02-22T11:47:54.788Z,22.50
2019-02-22T11:50:34.549Z,22.80
2019-02-22T11:53:09.630Z,22.30
2019-02-22T11:55:45.629Z,23.20
2019-02-22T11:58:20.729Z,23.20
2019-02-22T12:00:56.751Z,22.70
2019-02-22T12:03:31.758Z,22.10
2019-02-22T12:06:06.799Z,22.20
2019-02-22T12:08:43.030Z,22.40
2019-02-22T12:11:18.067Z,22.00
2019-02-22T12:13:54.035Z,21.30
2019-02-22T12:16:31.385Z,22.90
2019-02-22T12:19:06.406Z,25.40
2019-02-22T12:21:41.441Z,26.30
2019-02-22T12:24:17.464Z,29.30
2019-02-22T12:26:52.476Z,32.00
2019-02-22T12:29:27.869Z,34.00
2019-02-22T12:32:02.894Z,35.10
2019-02-22T12:34:37.940Z,35.50
2019-02-22T12:37:12.976Z,36.90
2019-02-22T12:39:48.075Z,37.90
2019-02-22T12:42:24.058Z,38.90
2019-02-22T12:45:02.886Z,39.60
2019-02-22T12:47:36.429Z,39.50
2019-02-22T12:50:12.288Z,40.10
2019-02-22T12:52:47.561Z,40.20
2019-02-22T12:55:22.597Z,40.50
2019-02-22T13:00:33.290Z,40.30
2019-02-22T13:03:08.420Z,40.00
2019-02-22T13:05:44.466Z,39.70
2019-02-22T13:08:19.559Z,40.60
2019-02-22T13:10:54.584Z,39.80
2019-02-22T13:13:29.631Z,40.60
2019-02-22T13:16:05.039Z,40.60
2019-02-22T13:18:40.395Z,41.40
2019-02-22T13:21:15.465Z,41.60
2019-02-22T13:23:50.480Z,41.40
2019-02-22T13:26:25.578Z,41.70
2019-02-22T13:29:00.939Z,41.90
2019-02-22T13:36:47.894Z,40.80
2019-02-22T13:39:24.293Z,40.60
2019-02-22T13:41:59.407Z,41.30
2019-02-22T13:44:35.509Z,41.80
2019-02-22T13:47:10.922Z,42.50
2019-02-22T13:49:46.240Z,42.40
2019-02-22T13:52:22.315Z,42.30
2019-02-22T13:54:57.314Z,42.30
2019-02-22T13:57:33.287Z,41.50
2019-02-22T14:00:16.932Z,41.60
2019-02-22T14:02:52.059Z,41.80
2019-02-22T14:05:28.370Z,41.70
2019-02-22T14:08:03.395Z,40.60
2019-02-22T14:10:38.725Z,39.90
2019-02-22T14:13:14.543Z,40.30
2019-02-22T14:15:50.833Z,40.80
2019-02-22T14:18:26.682Z,38.90
2019-02-22T14:21:01.720Z,40.00
2019-02-22T14:23:36.747Z,39.90
2019-02-22T14:26:12.209Z,40.80
2019-02-22T14:28:47.248Z,40.90
2019-02-22T14:31:22.265Z,40.90
2019-02-22T14:33:57.705Z,41.10
2019-02-22T14:36:32.736Z,41.40
2019-02-22T14:39:08.599Z,41.50
2019-02-22T14:41:44.234Z,41.10
2019-02-22T14:44:19.755Z,41.70
2019-02-22T14:46:55.009Z,42.10
2019-02-22T14:49:30.094Z,42.10
2019-02-22T14:52:06.448Z,42.70
2019-02-22T14:54:41.885Z,43.40
2019-02-22T14:57:16.897Z,43.50
2019-02-22T14:59:52.262Z,44.10
2019-02-22T15:02:27.280Z,44.20
2019-02-22T15:05:02.310Z,42.80
2019-02-22T15:07:37.925Z,42.60
2019-02-22T15:10:13.781Z,43.10
2019-02-22T15:12:48.799Z,43.50
2019-02-22T15:15:25.522Z,44.40
2019-02-22T15:18:05.233Z,45.00
2019-02-22T15:20:40.286Z,45.80
2019-02-22T15:23:15.562Z,46.60
2019-02-22T15:25:51.633Z,47.00
2019-02-22T15:28:27.277Z,46.80
2019-02-22T15:31:02.306Z,46.30
2019-02-22T15:33:37.654Z,46.00
2019-02-22T15:36:15.895Z,46.20
2019-02-22T15:38:49.960Z,46.50
2019-02-22T15:41:25.356Z,46.50
2019-02-22T15:44:01.451Z,46.20
2019-02-22T15:46:37.174Z,46.40
2019-02-22T15:49:12.723Z,46.70
2019-02-22T15:51:48.702Z,46.50
2019-02-22T15:54:24.081Z,46.40
2019-02-22T15:56:59.100Z,46.40
2019-02-22T15:59:34.166Z,46.00
2019-02-22T16:02:09.493Z,45.70
2019-02-22T16:04:46.166Z,45.90
2019-02-22T16:07:22.079Z,46.20
2019-02-22T16:09:57.471Z,46.80
2019-02-22T16:12:32.476Z,47.60
2019-02-22T16:15:09.627Z,47.70
2019-02-22T16:17:45.756Z,48.00
2019-02-22T16:20:21.086Z,48.30
2019-02-22T16:22:56.441Z,47.60
2019-02-22T16:25:31.792Z,47.70
2019-02-22T16:28:06.911Z,47.60
2019-02-22T16:30:42.069Z,48.00
2019-02-22T16:33:17.433Z,47.70
2019-02-22T16:35:52.534Z,47.80
2019-02-22T16:38:27.912Z,47.70
2019-02-22T16:41:03.269Z,47.70
2019-02-22T16:43:38.294Z,48.10
2019-02-22T16:46:13.318Z,48.30
2019-02-22T16:48:48.630Z,48.30
2019-02-22T16:51:23.682Z,48.80
2019-02-22T16:53:58.699Z,48.70
2019-02-22T16:56:33.770Z,48.90
2019-02-22T16:59:08.849Z,48.90
2019-02-22T17:06:54.187Z,48.20
2019-02-22T17:09:29.529Z,48.60
2019-02-22T17:12:06.683Z,48.80
2019-02-22T17:14:41.350Z,48.90
2019-02-22T17:17:16.814Z,48.60
2019-02-22T17:19:51.867Z,48.90
2019-02-22T17:22:27.258Z,49.10
2019-02-22T17:25:03.740Z,48.90
2019-02-22T17:27:38.796Z,49.10
2019-02-22T17:30:19.690Z,48.50
2019-02-22T17:32:54.766Z,48.70
2019-02-22T17:35:30.148Z,49.10
2019-02-22T17:38:05.180Z,48.90
2019-02-22T17:40:40.208Z,48.90
2019-02-22T17:43:15.249Z,49.30
2019-02-22T17:45:50.261Z,48.80
2019-02-22T17:48:25.293Z,49.20
2019-02-22T17:51:00.768Z,49.60
2019-02-22T17:53:36.286Z,50.00
2019-02-22T17:56:12.550Z,51.00
2019-02-22T17:58:47.608Z,51.10
2019-02-22T18:01:22.981Z,52.00
2019-02-22T18:03:58.032Z,52.50
2019-02-22T18:06:33.076Z,52.50
2019-02-22T18:09:09.055Z,52.80
2019-02-22T18:11:44.406Z,53.60
2019-02-22T18:14:21.171Z,53.50
2019-02-22T18:16:56.253Z,54.20
2019-02-22T18:19:31.998Z,54.30
2019-02-22T18:22:07.438Z,54.10
2019-02-22T18:24:42.491Z,54.40
2019-02-22T18:27:18.599Z,54.10
2019-02-22T18:29:53.627Z,54.10
2019-02-22T18:32:28.990Z,53.60
2019-02-22T18:35:05.882Z,53.70
2019-02-22T18:37:40.898Z,53.50
2019-02-22T18:40:20.949Z,54.40
2019-02-22T18:42:55.979Z,54.30
2019-02-22T18:45:31.531Z,54.50
2019-02-22T18:48:06.614Z,54.10
2019-02-22T18:50:41.990Z,54.40
2019-02-22T18:53:17.473Z,54.10
2019-02-22T18:55:52.805Z,53.80
2019-02-22T18:58:28.350Z,54.10
2019-02-22T19:01:03.365Z,54.20
2019-02-22T19:03:38.729Z,54.30
2019-02-22T19:06:14.074Z,54.10
2019-02-22T19:08:49.409Z,54.40
2019-02-22T19:11:24.861Z,54.30
2019-02-22T19:14:00.205Z,54.50
2019-02-22T19:16:35.539Z,54.50
2019-02-22T19:19:14.142Z,54.70
2019-02-22T19:21:48.886Z,54.60
2019-02-22T19:24:23.938Z,54.10
2019-02-22T19:26:59.267Z,54.00
2019-02-22T19:29:34.995Z,53.90
2019-02-22T19:32:10.628Z,54.10
2019-02-22T19:34:46.023Z,54.50
2019-02-22T19:37:21.043Z,54.40
2019-02-22T19:39:56.400Z,54.20
2019-02-22T19:42:32.770Z,54.30
2019-02-22T19:45:09.947Z,54.60
2019-02-22T19:47:45.302Z,54.60
2019-02-22T19:50:21.754Z,54.90
2019-02-22T19:52:56.798Z,55.10
2019-02-22T19:55:31.838Z,55.30
2019-02-22T19:58:07.193Z,55.70
2019-02-22T20:00:42.297Z,55.70
2019-02-22T20:03:17.780Z,54.70
2019-02-22T20:05:54.239Z,55.10
2019-02-22T20:08:29.689Z,54.90
2019-02-22T20:11:05.363Z,54.50
2019-02-22T20:13:40.500Z,54.20
2019-02-22T20:16:15.525Z,54.00
2019-02-22T20:18:50.605Z,53.70
2019-02-22T20:21:25.732Z,53.70
2019-02-22T20:24:02.972Z,53.60
2019-02-22T20:26:39.172Z,53.20
2019-02-22T20:29:14.787Z,53.50
2019-02-22T20:31:50.222Z,53.10
2019-02-22T20:34:25.656Z,52.30
2019-02-22T20:37:00.757Z,52.10
2019-02-22T20:39:35.939Z,51.60
2019-02-22T20:42:11.055Z,51.90
2019-02-22T20:44:46.236Z,52.10
2019-02-22T20:47:21.789Z,51.30
2019-02-22T20:49:57.797Z,51.00
2019-02-22T20:52:32.864Z,51.10
2019-02-22T20:55:12.283Z,50.50
2019-02-22T20:57:47.673Z,50.00
2019-02-22T21:00:27.499Z,50.00
2019-02-22T21:03:02.650Z,50.10
2019-02-22T21:05:38.685Z,50.10
2019-02-22T21:08:14.011Z,50.10
2019-02-22T21:10:49.459Z,49.70
2019-02-22T21:13:24.906Z,49.30
2019-02-22T21:16:00.255Z,49.30
2019-02-22T21:18:35.289Z,49.30
2019-02-22T21:21:12.403Z,50.10
2019-02-22T21:23:47.422Z,49.30
2019-02-22T21:26:22.788Z,49.80
2019-02-22T21:31:33.035Z,49.50
2019-02-22T21:34:08.080Z,50.50
2019-02-22T21:36:43.106Z,50.50
2019-02-22T21:39:19.343Z,50.90
2019-02-22T21:41:54.810Z,51.20
2019-02-22T21:44:29.900Z,51.10
2019-02-22T21:47:05.274Z,51.50
2019-02-22T21:49:40.721Z,51.80
2019-02-22T21:52:16.273Z,51.80
2019-02-22T21:54:51.372Z,51.80
2019-02-22T21:57:26.757Z,52.40
2019-02-22T22:00:01.832Z,52.00
2019-02-22T22:02:37.070Z,52.30
2019-02-22T22:05:12.203Z,52.30
2019-02-22T22:07:47.641Z,52.20
2019-02-22T22:10:22.678Z,52.50
2019-02-22T22:12:57.895Z,52.30
2019-02-22T22:15:32.950Z,52.30
2019-02-22T22:18:08.256Z,52.40
2019-02-22T22:20:44.431Z,52.10
2019-02-22T22:23:19.859Z,52.10
2019-02-22T22:25:54.894Z,52.10
2019-02-22T22:28:30.247Z,52.20
2019-02-22T22:31:05.370Z,52.30
2019-02-22T22:33:40.455Z,52.50
2019-02-22T22:36:15.897Z,52.60
2019-02-22T22:38:51.417Z,52.70
2019-02-22T22:41:26.480Z,52.70
2019-02-22T22:44:01.895Z,53.70
2019-02-22T22:46:37.421Z,52.90
2019-02-22T22:49:12.976Z,52.70
2019-02-22T22:51:48.008Z,52.50
2019-02-22T22:54:23.361Z,52.90
2019-02-22T22:56:58.375Z,53.00
2019-02-22T22:59:33.676Z,53.10
2019-02-22T23:02:08.868Z,53.00
2019-02-22T23:04:44.351Z,53.10
2019-02-22T23:07:19.782Z,53.10
2019-02-22T23:09:54.919Z,53.10
2019-02-22T23:12:30.051Z,53.30
2019-02-22T23:15:05.931Z,53.60
2019-02-22T23:17:41.075Z,53.50
2019-02-22T23:20:16.234Z,53.60
2019-02-22T23:22:52.532Z,54.00
2019-02-22T23:28:03.406Z,53.70
2019-02-22T23:33:13.427Z,55.20
2019-02-22T23:35:48.648Z,54.50
2019-02-22T23:38:24.187Z,54.90
2019-02-22T23:40:59.520Z,55.30
2019-02-22T23:43:34.559Z,55.50
2019-02-22T23:46:09.634Z,55.50
2019-02-22T23:48:45.352Z,55.60
2019-02-22T23:51:20.396Z,55.70
2019-02-22T23:53:55.444Z,55.60
2019-02-22T23:56:30.488Z,55.30
2019-02-22T23:59:05.554Z,55.20
